Terminal Aerodrome Forecast
Issued by NWS North Platte, NE

Home | Current Version | Previous Version | Text Only | Print | Product List | Glossary On
Versions: 1 2 3 4 5 6 7 8 9 10 11 12 13 14
242
FTUS43 KLBF 230541
TAFLBF
TAF
KLBF 230541Z 2306/2406 04012KT P6SM SCT250
     FM230800 06012KT P6SM BKN010
     FM231200 06015G23KT P6SM VCSH OVC010
     FM231500 06016G24KT P6SM VCSH OVC007
     FM231800 06016G24KT 4SM -RASN BKN004 OVC008
     FM232000 04014G21KT 2SM -RASN OVC003
     FM240000 02016G24KT 1SM -SN OVC007=

USA.gov is the U.S. government's official web portal to all federal, state and local government web resources and services.